| time (UTC) | temp C | wind direction | speed KPH | gust KPH | rain 1hr cm | rain 24hr cm | rain mn cm | humidity % | barometer mb |
| 20260905090740 | 22 | 93 | 0.0 | 1.6 | 0.00 | 0.00 | 0.00 | 76 | 1009.4 |
| 20260905090236 | 22 | 103 | 1.6 | 1.6 | 0.00 | 0.00 | 0.00 | 76 | 1009.7 |
| 20260905085735 | 22 | 94 | 0.0 | 1.6 | 0.00 | 0.00 | 0.00 | 77 | 1009.6 |
| 20260905085230 | 22 | 96 | 1.6 | 3.2 | 0.00 | 0.00 | 0.00 | 77 | 1009.6 |
| 20260905084730 | 22 | 90 | 0.0 | 0.0 | 0.00 | 0.00 | 0.00 | 80 | 1009.3 |
| 20260905084230 | 22 | 91 | 3.2 | 3.2 | 0.00 | 0.00 | 0.00 | 81 | 1009.6 |
| 20260905083725 | 22 | 94 | 0.0 | 1.6 | 0.00 | 0.00 | 0.00 | 82 | 1009.7 |
| 20260905083221 | 21 | 92 | 0.0 | 0.0 | 0.00 | 0.00 | 0.00 | 84 | 1009.7 |
| 20260905082717 | 21 | 94 | 0.0 | 0.0 | 0.00 | 0.00 | 0.00 | 84 | 1009.6 |
| 20260905082212 | 21 | 90 | 0.0 | 0.0 | 0.00 | 0.00 | 0.00 | 83 | 1009.5 |
| 20260905081712 | 21 | 94 | 0.0 | 0.0 | 0.00 | 0.00 | 0.00 | 83 | 1009.6 |
| 20260905081208 | 22 | 94 | 0.0 | 0.0 | 0.00 | 0.00 | 0.00 | 84 | 1009.6 |
| 20260905080707 | 21 | 93 | 0.0 | 1.6 | 0.00 | 0.00 | 0.00 | 84 | 1009.8 |
| 20260905080206 | 21 | 93 | 0.0 | 0.0 | 0.00 | 0.00 | 0.00 | 84 | 1009.7 |
| 20260905075706 | 22 | 92 | 0.0 | 0.0 | 0.00 | 0.00 | 0.00 | 84 | 1009.7 |
| 20260905075205 | 22 | 92 | 0.0 | 1.6 | 0.00 | 0.00 | 0.00 | 84 | 1009.7 |
| 20260905074704 | 22 | 92 | 0.0 | 0.0 | 0.00 | 0.00 | 0.00 | 84 | 1009.5 |
| 20260905074200 | 22 | 92 | 0.0 | 0.0 | 0.00 | 0.00 | 0.00 | 84 | 1009.9 |
| 20260905073655 | 22 | 94 | 0.0 | 0.0 | 0.00 | 0.00 | 0.00 | 83 | 1009.7 |
| 20260905073151 | 22 | 94 | 0.0 | 1.6 | 0.00 | 0.00 | 0.00 | 83 | 1009.8 |
| 20260905072650 | 22 | 88 | 0.0 | 1.6 | 0.00 | 0.00 | 0.00 | 83 | 1009.7 |
| 20260905072146 | 22 | 92 | 0.0 | 3.2 | 0.00 | 0.00 | 0.00 | 82 | 1009.6 |
| 20260905071642 | 22 | 94 | 1.6 | 1.6 | 0.00 | 0.00 | 0.00 | 82 | 1009.8 |
| 20260905071137 | 22 | 93 | 1.6 | 1.6 | 0.00 | 0.00 | 0.00 | 81 | 1009.7 |
| 20260905070633 | 22 | 92 | 0.0 | 1.6 | 0.00 | 0.00 | 0.00 | 80 | 1009.8 |
| 20260905070129 | 22 | 96 | 0.0 | 3.2 | 0.00 | 0.00 | 0.00 | 80 | 1009.9 |
| 20260905065626 | 22 | 94 | 0.0 | 3.2 | 0.00 | 0.00 | 0.00 | 78 | 1009.8 |
| 20260905065121 | 22 | 109 | 1.6 | 1.6 | 0.00 | 0.00 | 0.00 | 78 | 1009.9 |
| 20260905064616 | 22 | 98 | 1.6 | 1.6 | 0.00 | 0.00 | 0.00 | 78 | 1010.0 |
| 20260905064112 | 22 | 92 | 0.0 | 1.6 | 0.00 | 0.00 | 0.00 | 77 | 1010.0 |
| 20260905063611 | 23 | 94 | 1.6 | 3.2 | 0.00 | 0.00 | 0.00 | 77 | 1009.7 |
| 20260905063108 | 23 | 98 | 1.6 | 3.2 | 0.00 | 0.00 | 0.00 | 76 | 1009.8 |
| 20260905062603 | 23 | 99 | 1.6 | 1.6 | 0.00 | 0.00 | 0.00 | 77 | 1009.7 |
| 20260905062102 | 23 | 94 | 0.0 | 1.6 | 0.00 | 0.00 | 0.00 | 77 | 1009.7 |
| 20260905061557 | 23 | 94 | 1.6 | 3.2 | 0.00 | 0.00 | 0.00 | 76 | 1010.0 |
| 20260905061056 | 23 | 135 | 0.0 | 3.2 | 0.00 | 0.00 | 0.00 | 76 | 1010.1 |
| 20260905060552 | 23 | 95 | 0.0 | 3.2 | 0.00 | 0.00 | 0.00 | 76 | 1010.0 |
| 20260905060048 | 23 | 102 | 0.0 | 1.6 | 0.00 | 0.00 | 0.00 | 75 | 1009.9 |
| 20260905055547 | 23 | 98 | 1.6 | 3.2 | 0.00 | 0.00 | 0.00 | 75 | 1009.9 |
| 20260905055042 | 23 | 88 | 0.0 | 8.0 | 0.00 | 0.00 | 0.00 | 75 | 1010.1 |
| 20260905054538 | 23 | 91 | 1.6 | 3.2 | 0.00 | 0.00 | 0.00 | 75 | 1010.4 |
| 20260905054033 | 23 | 100 | 1.6 | 1.6 | 0.00 | 0.00 | 0.00 | 74 | 1010.3 |
| 20260905053532 | 23 | 96 | 0.0 | 1.6 | 0.00 | 0.00 | 0.00 | 74 | 1010.2 |
| 20260905053028 | 23 | 121 | 1.6 | 3.2 | 0.00 | 0.00 | 0.00 | 74 | 1010.2 |
| 20260905052528 | 23 | 86 | 3.2 | 8.0 | 0.00 | 0.00 | 0.00 | 73 | 1010.4 |
| 20260905052028 | 23 | 110 | 1.6 | 4.8 | 0.00 | 0.00 | 0.00 | 74 | 1010.4 |
| 20260905051523 | 23 | 96 | 1.6 | 1.6 | 0.00 | 0.00 | 0.00 | 74 | 1010.6 |
| 20260905051020 | 23 | 112 | 0.0 | 1.6 | 0.00 | 0.00 | 0.00 | 75 | 1010.7 |
| 20260905050516 | 23 | 97 | 0.0 | 1.6 | 0.00 | 0.00 | 0.00 | 74 | 1010.3 |
| 20260905050013 | 23 | 95 | 1.6 | 3.2 | 0.00 | 0.00 | 0.00 | 74 | 1010.5 |
| 20260905045507 | 23 | 117 | 1.6 | 4.8 | 0.00 | 0.00 | 0.00 | 73 | 1010.5 |
| 20260905045002 | 23 | 106 | 3.2 | 3.2 | 0.00 | 0.00 | 0.00 | 73 | 1010.7 |
| 20260905044457 | 23 | 96 | 1.6 | 3.2 | 0.00 | 0.00 | 0.00 | 74 | 1010.5 |
| 20260905043956 | 23 | 101 | 1.6 | 4.8 | 0.00 | 0.00 | 0.00 | 73 | 1010.6 |
| 20260905043455 | 23 | 104 | 1.6 | 4.8 | 0.00 | 0.00 | 0.00 | 74 | 1010.8 |
| 20260905042951 | 23 | 118 | 4.8 | 8.0 | 0.00 | 0.00 | 0.00 | 73 | 1010.8 |
| 20260905042444 | 23 | 105 | 1.6 | 4.8 | 0.00 | 0.00 | 0.00 | 74 | 1010.8 |
| 20260905041940 | 23 | 104 | 4.8 | 4.8 | 0.00 | 0.00 | 0.00 | 76 | 1010.9 |
| 20260905041431 | 23 | 95 | 0.0 | 1.6 | 0.00 | 0.00 | 0.00 | 77 | 1010.9 |
| 20260905040930 | 23 | 101 | 3.2 | 4.8 | 0.00 | 0.00 | 0.00 | 77 | 1010.9 |
| 20260905040430 | 23 | 94 | 0.0 | 3.2 | 0.00 | 0.00 | 0.00 | 77 | 1011.0 |
| 20260905035929 | 23 | 95 | 0.0 | 1.6 | 0.00 | 0.13 | 0.13 | 78 | 1011.1 |
| 20260905035425 | 23 | 98 | 0.0 | 1.6 | 0.00 | 0.13 | 0.13 | 78 | 1010.8 |
| 20260905034922 | 23 | 95 | 0.0 | 1.6 | 0.00 | 0.13 | 0.13 | 77 | 1011.0 |
| 20260905034416 | 24 | 91 | 0.0 | 0.0 | 0.00 | 0.13 | 0.13 | 77 | 1010.8 |
| 20260905033915 | 24 | 94 | 0.0 | 1.6 | 0.00 | 0.13 | 0.13 | 77 | 1010.9 |
| 20260905033411 | 24 | 94 | 1.6 | 3.2 | 0.00 | 0.13 | 0.13 | 76 | 1010.7 |
| 20260905032910 | 24 | 93 | 0.0 | 1.6 | 0.00 | 0.13 | 0.13 | 76 | 1010.6 |
| 20260905032406 | 24 | 104 | 3.2 | 3.2 | 0.00 | 0.13 | 0.13 | 76 | 1010.7 |
| 20260905031901 | 24 | 91 | 0.0 | 1.6 | 0.00 | 0.13 | 0.13 | 76 | 1010.6 |
| 20260905031357 | 24 | 91 | 0.0 | 1.6 | 0.00 | 0.13 | 0.13 | 75 | 1010.6 |
| 20260905030852 | 24 | 90 | 0.0 | 3.2 | 0.00 | 0.13 | 0.13 | 75 | 1010.6 |
| 20260905030347 | 24 | 93 | 0.0 | 4.8 | 0.00 | 0.13 | 0.13 | 75 | 1010.6 |
| 20260905025846 | 24 | 93 | 0.0 | 3.2 | 0.00 | 0.13 | 0.13 | 75 | 1010.7 |
| 20260905025341 | 24 | 97 | 1.6 | 3.2 | 0.00 | 0.13 | 0.13 | 76 | 1010.5 |
| 20260905024838 | 24 | 91 | 1.6 | 4.8 | 0.00 | 0.13 | 0.13 | 77 | 1010.5 |
| 20260905024333 | 24 | 101 | 1.6 | 3.2 | 0.00 | 0.13 | 0.13 | 78 | 1010.4 |
| 20260905023828 | 24 | 101 | 4.8 | 4.8 | 0.00 | 0.13 | 0.13 | 78 | 1010.4 |
| 20260905023324 | 24 | 94 | 0.0 | 0.0 | 0.00 | 0.13 | 0.13 | 79 | 1010.6 |
| 20260905022822 | 24 | 96 | 1.6 | 1.6 | 0.00 | 0.13 | 0.13 | 78 | 1010.7 |
| 20260905022318 | 24 | 92 | 0.0 | 0.0 | 0.00 | 0.13 | 0.13 | 79 | 1010.9 |
| 20260905021819 | 24 | 95 | 1.6 | 1.6 | 0.00 | 0.13 | 0.13 | 79 | 1010.5 |
| 20260905021314 | 24 | 95 | 1.6 | 1.6 | 0.00 | 0.13 | 0.13 | 78 | 1010.4 |
| 20260905020814 | 24 | 99 | 0.0 | 0.0 | 0.00 | 0.13 | 0.13 | 80 | 1010.6 |
| 20260905020310 | 24 | 92 | 0.0 | 0.0 | 0.00 | 0.13 | 0.13 | 81 | 1010.7 |
| 20260905015808 | 24 | 93 | 0.0 | 0.0 | 0.00 | 0.13 | 0.13 | 81 | 1010.8 |
| 20260905015308 | 24 | 93 | 0.0 | 1.6 | 0.00 | 0.13 | 0.13 | 79 | 1010.8 |
| 20260905014807 | 25 | 93 | 0.0 | 1.6 | 0.00 | 0.13 | 0.13 | 79 | 1010.8 |
| 20260905014303 | 25 | 95 | 0.0 | 1.6 | 0.00 | 0.13 | 0.13 | 78 | 1010.5 |
| 20260905013758 | 25 | 97 | 1.6 | 1.6 | 0.00 | 0.13 | 0.13 | 78 | 1010.8 |
| 20260905013254 | 24 | 93 | 1.6 | 3.2 | 0.00 | 0.13 | 0.13 | 79 | 1010.8 |
| 20260905012744 | 24 | 100 | 0.0 | 0.0 | 0.00 | 0.13 | 0.13 | 80 | 1010.7 |
| 20260905012240 | 24 | 93 | 0.0 | 0.0 | 0.00 | 0.13 | 0.13 | 81 | 1010.7 |
| 20260905011736 | 24 | 95 | 0.0 | 1.6 | 0.00 | 0.13 | 0.13 | 81 | 1010.8 |
| 20260905011231 | 25 | 93 | 0.0 | 0.0 | 0.00 | 0.13 | 0.13 | 82 | 1010.8 |
| 20260905010731 | 24 | 94 | 0.0 | 1.6 | 0.00 | 0.13 | 0.13 | 82 | 1010.8 |
| 20260905010226 | 24 | 93 | 0.0 | 0.0 | 0.00 | 0.13 | 0.13 | 83 | 1010.8 |
| 20260905005723 | 24 | 92 | 0.0 | 0.0 | 0.00 | 0.13 | 0.13 | 83 | 1010.6 |
| 20260905005219 | 24 | 92 | 0.0 | 0.0 | 0.00 | 0.13 | 0.13 | 83 | 1010.6 |
| 20260905004712 | 25 | 92 | 0.0 | 0.0 | 0.00 | 0.13 | 0.13 | 82 | 1010.6 |
| 20260905004208 | 25 | 93 | 0.0 | 0.0 | 0.00 | 0.13 | 0.13 | 82 | 1010.7 |
| 20260905003704 | 25 | 91 | 0.0 | 0.0 | 0.00 | 0.13 | 0.13 | 81 | 1010.3 |
| 20260905003200 | 25 | 93 | 0.0 | 1.6 | 0.00 | 0.13 | 0.13 | 80 | 1010.3 |
| 20260905002655 | 25 | 93 | 0.0 | 0.0 | 0.00 | 0.13 | 0.13 | 79 | 1010.3 |
| 20260905002155 | 25 | 93 | 0.0 | 1.6 | 0.00 | 0.13 | 0.13 | 78 | 1010.3 |
| 20260905001650 | 25 | 95 | 0.0 | 1.6 | 0.00 | 0.13 | 0.13 | 78 | 1010.3 |
| 20260905001149 | 25 | 101 | 0.0 | 0.0 | 0.00 | 0.13 | 0.13 | 78 | 1010.3 |
| 20260905000644 | 25 | 93 | 0.0 | 0.0 | 0.00 | 0.13 | 0.13 | 78 | 1010.4 |
| 20260905000140 | 26 | 90 | 0.0 | 0.0 | 0.00 | 0.13 | 0.13 | 78 | 1010.4 |
| 20260904235640 | 26 | 93 | 0.0 | 0.0 | 0.00 | 0.13 | 0.13 | 78 | 1010.4 |
| 20260904235139 | 26 | 93 | 0.0 | 1.6 | 0.00 | 0.13 | 0.13 | 77 | 1010.2 |
| 20260904234635 | 26 | 93 | 0.0 | 0.0 | 0.00 | 0.13 | 0.13 | 77 | 1010.3 |
| 20260904234130 | 26 | 93 | 0.0 | 0.0 | 0.00 | 0.13 | 0.13 | 77 | 1010.3 |
| 20260904233626 | 26 | 94 | 0.0 | 0.0 | 0.00 | 0.13 | 0.13 | 77 | 1010.7 |
| 20260904233122 | 26 | 93 | 0.0 | 0.0 | 0.00 | 0.13 | 0.13 | 77 | 1010.4 |
| 20260904232618 | 26 | 91 | 0.0 | 0.0 | 0.00 | 0.13 | 0.13 | 76 | 1010.4 |
| 20260904232114 | 26 | 90 | 0.0 | 1.6 | 0.00 | 0.13 | 0.13 | 76 | 1010.5 |
| 20260904231610 | 26 | 90 | 0.0 | 0.0 | 0.00 | 0.13 | 0.13 | 76 | 1010.3 |
| 20260904231109 | 26 | 89 | 0.0 | 1.6 | 0.00 | 0.13 | 0.13 | 76 | 1010.6 |
| 20260904230608 | 26 | 92 | 0.0 | 0.0 | 0.00 | 0.13 | 0.13 | 76 | 1010.3 |
| 20260904230104 | 26 | 93 | 1.6 | 1.6 | 0.00 | 0.13 | 0.13 | 75 | 1010.5 |
| 20260904225601 | 26 | 90 | 0.0 | 0.0 | 0.00 | 0.13 | 0.13 | 74 | 1010.5 |
| 20260904225056 | 27 | 89 | 0.0 | 1.6 | 0.00 | 0.13 | 0.13 | 73 | 1010.4 |
| 20260904224551 | 27 | 93 | 0.0 | 0.0 | 0.00 | 0.13 | 0.13 | 72 | 1010.5 |
| 20260904224046 | 28 | 91 | 0.0 | 1.6 | 0.00 | 0.13 | 0.13 | 70 | 1010.7 |
| 20260904223545 | 28 | 94 | 0.0 | 1.6 | 0.00 | 0.13 | 0.13 | 69 | 1010.5 |
| 20260904223041 | 28 | 97 | 1.6 | 3.2 | 0.00 | 0.13 | 0.13 | 69 | 1010.5 |
| 20260904222536 | 28 | 94 | 0.0 | 1.6 | 0.00 | 0.13 | 0.13 | 69 | 1010.3 |
| 20260904222031 | 29 | 94 | 3.2 | 3.2 | 0.00 | 0.13 | 0.13 | 68 | 1010.6 |
| 20260904221527 | 30 | 100 | 1.6 | 3.2 | 0.00 | 0.13 | 0.13 | 63 | 1010.3 |
| 20260904221026 | 30 | 99 | 1.6 | 4.8 | 0.00 | 0.13 | 0.13 | 64 | 1010.5 |
| 20260904220526 | 30 | 93 | 0.0 | 1.6 | 0.00 | 0.13 | 0.13 | 64 | 1010.3 |
| 20260904220022 | 28 | 88 | 1.6 | 3.2 | 0.00 | 0.13 | 0.13 | 65 | 1010.4 |
| 20260904215522 | 29 | 92 | 1.6 | 3.2 | 0.00 | 0.13 | 0.13 | 64 | 1010.3 |
| 20260904215018 | 28 | 121 | 3.2 | 4.8 | 0.00 | 0.13 | 0.13 | 65 | 1010.4 |
| 20260904214513 | 28 | 97 | 1.6 | 3.2 | 0.00 | 0.13 | 0.13 | 65 | 1010.2 |
| 20260904214008 | 29 | 98 | 1.6 | 9.7 | 0.00 | 0.13 | 0.13 | 64 | 1010.5 |
| 20260904213506 | 30 | 102 | 3.2 | 3.2 | 0.00 | 0.13 | 0.13 | 61 | 1010.1 |
| 20260904213003 | 30 | 98 | 4.8 | 8.0 | 0.00 | 0.13 | 0.13 | 62 | 1010.2 |
| 20260904212503 | 30 | 94 | 6.4 | 8.0 | 0.00 | 0.13 | 0.13 | 62 | 1010.3 |
| 20260904211958 | 30 | 89 | 1.6 | 3.2 | 0.00 | 0.13 | 0.13 | 63 | 1010.2 |
| 20260904211458 | 30 | 136 | 3.2 | 9.7 | 0.00 | 0.13 | 0.13 | 60 | 1010.2 |
| 20260904210954 | 30 | 124 | 1.6 | 4.8 | 0.00 | 0.13 | 0.13 | 59 | 1010.3 |
| 20260904210452 | 30 | 155 | 4.8 | 9.7 | 0.00 | 0.13 | 0.13 | 61 | 1010.3 |
| 20260904205948 | 31 | 79 | 0.0 | 3.2 | 0.00 | 0.13 | 0.13 | 61 | 1010.1 |
| 20260904205443 | 30 | 90 | 1.6 | 4.8 | 0.00 | 0.13 | 0.13 | 61 | 1009.9 |
| 20260904204941 | 30 | 103 | 1.6 | 4.8 | 0.00 | 0.13 | 0.13 | 61 | 1010.3 |
| 20260904204436 | 30 | 89 | 0.0 | 8.0 | 0.00 | 0.13 | 0.13 | 63 | 1010.4 |
| 20260904203932 | 30 | 91 | 1.6 | 9.7 | 0.00 | 0.13 | 0.13 | 65 | 1010.2 |
| 20260904203429 | 30 | 92 | 3.2 | 3.2 | 0.00 | 0.13 | 0.13 | 63 | 1010.4 |
| 20260904202924 | 30 | 101 | 1.6 | 8.0 | 0.00 | 0.13 | 0.13 | 61 | 1010.3 |
| 20260904202420 | 29 | 148 | 6.4 | 8.0 | 0.00 | 0.13 | 0.13 | 62 | 1010.4 |
| 20260904201916 | 28 | 94 | 4.8 | 9.7 | 0.00 | 0.13 | 0.13 | 65 | 1010.5 |
| 20260904201411 | 28 | 96 | 3.2 | 4.8 | 0.00 | 0.13 | 0.13 | 64 | 1010.4 |
| 20260904200906 | 28 | 172 | 4.8 | 14.5 | 0.00 | 0.13 | 0.13 | 64 | 1010.8 |
| 20260904200405 | 28 | 88 | 0.0 | 3.2 | 0.00 | 0.13 | 0.13 | 64 | 1010.9 |
| 20260904195900 | 29 | 91 | 1.6 | 1.6 | 0.00 | 0.13 | 0.13 | 64 | 1010.6 |
| 20260904195357 | 30 | 114 | 1.6 | 3.2 | 0.00 | 0.13 | 0.13 | 62 | 1010.7 |
| 20260904194852 | 31 | 80 | 6.4 | 11.3 | 0.00 | 0.13 | 0.13 | 63 | 1010.7 |
| 20260904194352 | 31 | 98 | 3.2 | 4.8 | 0.00 | 0.13 | 0.13 | 62 | 1010.8 |
| 20260904193847 | 31 | 87 | 0.0 | 8.0 | 0.00 | 0.13 | 0.13 | 61 | 1010.6 |
| 20260904193343 | 31 | 104 | 3.2 | 20.9 | 0.00 | 0.13 | 0.13 | 61 | 1010.8 |
| 20260904192838 | 31 | 86 | 1.6 | 9.7 | 0.00 | 0.13 | 0.13 | 61 | 1010.9 |
| 20260904192333 | 31 | 134 | 1.6 | 8.0 | 0.00 | 0.13 | 0.13 | 61 | 1010.9 |
| 20260904191830 | 31 | 72 | 8.0 | 11.3 | 0.00 | 0.13 | 0.13 | 60 | 1011.1 |
| 20260904191326 | 30 | 84 | 4.8 | 8.0 | 0.00 | 0.13 | 0.13 | 62 | 1011.3 |
| 20260904190822 | 30 | 130 | 4.8 | 4.8 | 0.00 | 0.13 | 0.13 | 64 | 1011.0 |
| 20260904190318 | 30 | 118 | 4.8 | 12.9 | 0.00 | 0.13 | 0.13 | 64 | 1011.1 |
| 20260904185814 | 30 | 134 | 4.8 | 4.8 | 0.00 | 0.13 | 0.13 | 64 | 1011.1 |
| 20260904185309 | 30 | 135 | 4.8 | 8.0 | 0.00 | 0.13 | 0.13 | 63 | 1011.3 |
| 20260904184809 | 30 | 92 | 1.6 | 8.0 | 0.00 | 0.13 | 0.13 | 62 | 1011.2 |
| 20260904184304 | 30 | 104 | 4.8 | 9.7 | 0.00 | 0.13 | 0.13 | 62 | 1011.2 |
| 20260904183800 | 30 | 101 | 4.8 | 8.0 | 0.00 | 0.13 | 0.13 | 63 | 1011.3 |
| 20260904183300 | 30 | 105 | 3.2 | 8.0 | 0.00 | 0.13 | 0.13 | 64 | 1011.2 |
| 20260904182755 | 30 | 13 | 6.4 | 8.0 | 0.00 | 0.13 | 0.13 | 64 | 1011.3 |
| 20260904182250 | 29 | 141 | 4.8 | 8.0 | 0.00 | 0.13 | 0.13 | 65 | 1011.2 |
| 20260904181746 | 29 | 105 | 3.2 | 4.8 | 0.00 | 0.13 | 0.13 | 64 | 1011.3 |
| 20260904181245 | 29 | 110 | 4.8 | 11.3 | 0.00 | 0.13 | 0.13 | 65 | 1011.4 |
| 20260904180741 | 29 | 146 | 3.2 | 8.0 | 0.00 | 0.13 | 0.13 | 64 | 1011.5 |
| 20260904180236 | 29 | 116 | 3.2 | 3.2 | 0.00 | 0.13 | 0.13 | 63 | 1011.4 |
| 20260904175735 | 30 | 86 | 4.8 | 8.0 | 0.00 | 0.13 | 0.13 | 61 | 1011.2 |
| 20260904175233 | 30 | 102 | 1.6 | 8.0 | 0.00 | 0.13 | 0.13 | 62 | 1011.3 |
| 20260904174729 | 30 | 114 | 3.2 | 4.8 | 0.00 | 0.13 | 0.13 | 63 | 1011.1 |
| 20260904174225 | 30 | 93 | 6.4 | 9.7 | 0.00 | 0.13 | 0.13 | 62 | 1011.3 |
| 20260904173721 | 30 | 99 | 3.2 | 4.8 | 0.00 | 0.13 | 0.13 | 64 | 1011.1 |
| 20260904173220 | 28 | 79 | 4.8 | 14.5 | 0.00 | 0.13 | 0.13 | 66 | 1011.4 |
| 20260904172717 | 28 | 128 | 4.8 | 8.0 | 0.00 | 0.13 | 0.13 | 67 | 1011.4 |
| 20260904172216 | 28 | 114 | 3.2 | 4.8 | 0.00 | 0.13 | 0.13 | 65 | 1011.3 |
| 20260904171711 | 29 | 137 | 3.2 | 8.0 | 0.00 | 0.13 | 0.13 | 66 | 1011.2 |
| 20260904171206 | 30 | 100 | 3.2 | 3.2 | 0.00 | 0.13 | 0.13 | 63 | 1011.3 |
| 20260904170703 | 30 | 138 | 6.4 | 8.0 | 0.00 | 0.13 | 0.13 | 62 | 1011.2 |
| 20260904170158 | 30 | 108 | 3.2 | 4.8 | 0.00 | 0.13 | 0.13 | 63 | 1011.4 |
| 20260904165656 | 30 | 148 | 4.8 | 8.0 | 0.00 | 0.13 | 0.13 | 64 | 1011.5 |
| 20260904165151 | 29 | 90 | 0.0 | 3.2 | 0.00 | 0.13 | 0.13 | 63 | 1011.4 |
| 20260904164646 | 29 | 97 | 0.0 | 4.8 | 0.00 | 0.13 | 0.13 | 65 | 1011.4 |
| 20260904164141 | 30 | 121 | 3.2 | 4.8 | 0.00 | 0.13 | 0.13 | 62 | 1011.4 |
| 20260904163636 | 30 | 139 | 8.0 | 12.9 | 0.00 | 0.13 | 0.13 | 62 | 1011.6 |
| 20260904163131 | 30 | 75 | 4.8 | 9.7 | 0.00 | 0.13 | 0.13 | 63 | 1011.4 |
| 20260904162626 | 30 | 160 | 8.0 | 12.9 | 0.00 | 0.13 | 0.13 | 63 | 1011.8 |
| 20260904162126 | 30 | 85 | 9.7 | 12.9 | 0.00 | 0.13 | 0.13 | 62 | 1011.5 |
| 20260904161621 | 30 | 161 | 4.8 | 8.0 | 0.00 | 0.13 | 0.13 | 63 | 1011.3 |
| 20260904161116 | 29 | 87 | 3.2 | 3.2 | 0.00 | 0.13 | 0.13 | 63 | 1011.2 |
| 20260904160612 | 29 | 70 | 3.2 | 9.7 | 0.00 | 0.13 | 0.13 | 65 | 1011.5 |
| 20260904160108 | 29 | 102 | 1.6 | 9.7 | 0.00 | 0.13 | 0.13 | 67 | 1011.6 |
| 20260904155608 | 29 | 123 | 3.2 | 9.7 | 0.00 | 0.13 | 0.13 | 66 | 1011.5 |
| 20260904155102 | 30 | 104 | 3.2 | 8.0 | 0.00 | 0.13 | 0.13 | 68 | 1011.6 |
| 20260904154555 | 29 | 113 | 3.2 | 4.8 | 0.00 | 0.13 | 0.13 | 67 | 1011.6 |
| 20260904154051 | 29 | 125 | 3.2 | 11.3 | 0.00 | 0.13 | 0.13 | 68 | 1011.7 |
| 20260904153550 | 28 | 95 | 1.6 | 9.7 | 0.00 | 0.13 | 0.13 | 70 | 1011.5 |
| 20260904153047 | 28 | 119 | 4.8 | 9.7 | 0.00 | 0.13 | 0.13 | 70 | 1011.6 |
| 20260904152542 | 28 | 106 | 4.8 | 8.0 | 0.00 | 0.13 | 0.13 | 67 | 1011.8 |
| 20260904152037 | 28 | 21 | 4.8 | 11.3 | 0.00 | 0.13 | 0.13 | 71 | 1012.0 |
| 20260904151533 | 28 | 95 | 3.2 | 8.0 | 0.00 | 0.13 | 0.13 | 71 | 1011.7 |
| 20260904151032 | 28 | 90 | 1.6 | 9.7 | 0.00 | 0.13 | 0.13 | 72 | 1011.9 |
| 20260904150532 | 28 | 151 | 4.8 | 12.9 | 0.00 | 0.13 | 0.13 | 71 | 1011.9 |
| 20260904150027 | 27 | 344 | 4.8 | 12.9 | 0.00 | 0.13 | 0.13 | 73 | 1011.8 |
| 20260904145521 | 27 | 139 | 4.8 | 16.1 | 0.00 | 0.13 | 0.13 | 73 | 1011.8 |
| 20260904145016 | 27 | 152 | 4.8 | 9.7 | 0.00 | 0.13 | 0.13 | 74 | 1011.8 |
| 20260904144512 | 27 | 162 | 8.0 | 16.1 | 0.00 | 0.13 | 0.13 | 76 | 1011.8 |
| 20260904144008 | 27 | 90 | 3.2 | 8.0 | 0.00 | 0.13 | 0.13 | 76 | 1011.7 |
| 20260904143504 | 27 | 126 | 4.8 | 12.9 | 0.00 | 0.13 | 0.13 | 78 | 1011.7 |
| 20260904143001 | 27 | 136 | 4.8 | 9.7 | 0.00 | 0.13 | 0.13 | 80 | 1011.6 |
| 20260904142457 | 27 | 101 | 1.6 | 3.2 | 0.00 | 0.13 | 0.13 | 80 | 1011.6 |
| 20260904141956 | 26 | 117 | 6.4 | 8.0 | 0.00 | 0.13 | 0.13 | 81 | 1011.7 |
| 20260904141451 | 26 | 196 | 6.4 | 9.7 | 0.00 | 0.13 | 0.13 | 82 | 1011.7 |
| 20260904140948 | 26 | 114 | 3.2 | 4.8 | 0.00 | 0.13 | 0.13 | 84 | 1011.5 |
| 20260904140447 | 26 | 269 | 3.2 | 4.8 | 0.00 | 0.13 | 0.13 | 85 | 1011.7 |
| 20260904135946 | 26 | 113 | 3.2 | 8.0 | 0.00 | 0.13 | 0.13 | 85 | 1011.7 |
| 20260904135446 | 26 | 112 | 3.2 | 9.7 | 0.00 | 0.13 | 0.13 | 86 | 1011.7 |
| 20260904134943 | 25 | 103 | 3.2 | 11.3 | 0.00 | 0.13 | 0.13 | 87 | 1011.5 |
| 20260904134442 | 25 | 30 | 3.2 | 4.8 | 0.00 | 0.13 | 0.13 | 87 | 1011.5 |
| 20260904133937 | 25 | 124 | 3.2 | 9.7 | 0.00 | 0.13 | 0.13 | 88 | 1011.7 |
| 20260904133432 | 25 | 115 | 8.0 | 9.7 | 0.00 | 0.13 | 0.13 | 88 | 1011.6 |
| 20260904132928 | 25 | 119 | 4.8 | 16.1 | 0.00 | 0.13 | 0.13 | 88 | 1011.7 |
| 20260904132422 | 25 | 79 | 4.8 | 9.7 | 0.00 | 0.13 | 0.13 | 88 | 1011.3 |
| 20260904131922 | 25 | 138 | 9.7 | 12.9 | 0.00 | 0.13 | 0.13 | 88 | 1011.2 |
| 20260904131417 | 25 | 108 | 4.8 | 9.7 | 0.00 | 0.13 | 0.13 | 89 | 1011.5 |
| 20260904130913 | 25 | 92 | 1.6 | 4.8 | 0.00 | 0.13 | 0.13 | 89 | 1011.4 |
| 20260904130412 | 25 | 142 | 4.8 | 12.9 | 0.00 | 0.13 | 0.13 | 89 | 1011.3 |
| 20260904125907 | 25 | 105 | 3.2 | 3.2 | 0.00 | 0.13 | 0.13 | 91 | 1011.4 |
| 20260904125404 | 25 | 97 | 0.0 | 3.2 | 0.00 | 0.13 | 0.13 | 92 | 1011.3 |
| 20260904124902 | 24 | 115 | 4.8 | 8.0 | 0.00 | 0.13 | 0.13 | 92 | 1011.3 |
| 20260904124359 | 24 | 99 | 4.8 | 12.9 | 0.00 | 0.13 | 0.13 | 93 | 1011.4 |
| 20260904123854 | 24 | 93 | 4.8 | 8.0 | 0.00 | 0.13 | 0.13 | 94 | 1011.3 |
| 20260904123349 | 23 | 93 | 3.2 | 8.0 | 0.00 | 0.13 | 0.13 | 95 | 1011.4 |
| 20260904122845 | 23 | 92 | 1.6 | 4.8 | 0.00 | 0.13 | 0.13 | 96 | 1011.2 |
| 20260904122344 | 23 | 97 | 1.6 | 4.8 | 0.00 | 0.13 | 0.13 | 97 | 1011.3 |
| 20260904121839 | 23 | 67 | 1.6 | 3.2 | 0.00 | 0.13 | 0.13 | 97 | 1011.2 |
| 20260904121336 | 23 | 111 | 4.8 | 4.8 | 0.00 | 0.13 | 0.13 | 98 | 1011.3 |
| 20260904120832 | 23 | 90 | 3.2 | 3.2 | 0.00 | 0.13 | 0.13 | 98 | 1011.2 |
| 20260904120327 | 23 | 88 | 3.2 | 4.8 | 0.00 | 0.13 | 0.13 | 98 | 1011.3 |
| 20260904115822 | 23 | 95 | 0.0 | 4.8 | 0.00 | 0.13 | 0.13 | 98 | 1011.3 |
| 20260904115317 | 23 | 103 | 1.6 | 3.2 | 0.00 | 0.13 | 0.13 | 98 | 1011.0 |
| 20260904114817 | 23 | 110 | 1.6 | 1.6 | 0.00 | 0.13 | 0.13 | 98 | 1011.1 |
| 20260904114312 | 23 | 87 | 4.8 | 8.0 | 0.00 | 0.13 | 0.13 | 99 | 1010.9 |
| 20260904113807 | 23 | 98 | 1.6 | 9.7 | 0.00 | 0.13 | 0.13 | 99 | 1011.2 |
| 20260904113306 | 23 | 99 | 1.6 | 4.8 | 0.00 | 0.13 | 0.13 | 99 | 1011.2 |
| 20260904112801 | 23 | 120 | 1.6 | 3.2 | 0.00 | 0.13 | 0.13 | 99 | 1011.1 |
| 20260904112256 | 23 | 93 | 0.0 | 1.6 | 0.00 | 0.13 | 0.13 | 99 | 1010.9 |
| 20260904111752 | 23 | 82 | 0.0 | 3.2 | 0.00 | 0.13 | 0.13 | 99 | 1010.8 |
| 20260904111248 | 23 | 79 | 1.6 | 11.3 | 0.00 | 0.13 | 0.13 | 99 | 1010.5 |
| 20260904110743 | 23 | 86 | 1.6 | 4.8 | 0.00 | 0.13 | 0.13 | 99 | 1010.7 |
| 20260904110242 | 23 | 90 | 1.6 | 4.8 | 0.00 | 0.13 | 0.13 | 99 | 1010.6 |
| 20260904105738 | 23 | 77 | 1.6 | 1.6 | 0.00 | 0.13 | 0.13 | 99 | 1010.8 |
| 20260904105232 | 23 | 92 | 1.6 | 4.8 | 0.00 | 0.13 | 0.13 | 99 | 1010.8 |
| 20260904104728 | 23 | 90 | 0.0 | 9.7 | 0.00 | 0.13 | 0.13 | 99 | 1010.4 |
| 20260904104223 | 23 | 98 | 1.6 | 4.8 | 0.00 | 0.13 | 0.13 | 99 | 1010.7 |
| 20260904103720 | 23 | 94 | 1.6 | 3.2 | 0.00 | 0.13 | 0.13 | 99 | 1010.6 |
| 20260904103214 | 23 | 89 | 3.2 | 3.2 | 0.00 | 0.13 | 0.13 | 99 | 1010.4 |
| 20260904102710 | 23 | 89 | 0.0 | 3.2 | 0.00 | 0.13 | 0.13 | 99 | 1010.5 |
| 20260904102206 | 23 | 84 | 1.6 | 4.8 | 0.00 | 0.13 | 0.13 | 99 | 1010.4 |
| 20260904101702 | 23 | 117 | 1.6 | 3.2 | 0.00 | 0.13 | 0.13 | 99 | 1010.4 |
| 20260904101157 | 23 | 93 | 1.6 | 4.8 | 0.00 | 0.13 | 0.13 | 99 | 1010.3 |
| 20260904100653 | 23 | 93 | 0.0 | 3.2 | 0.00 | 0.13 | 0.13 | 99 | 1010.3 |
| 20260904100149 | 23 | 84 | 3.2 | 3.2 | 0.00 | 0.13 | 0.13 | 99 | 1010.3 |
| 20260904095648 | 23 | 93 | 1.6 | 3.2 | 0.00 | 0.13 | 0.13 | 99 | 1010.4 |
| 20260904095143 | 23 | 90 | 1.6 | 3.2 | 0.00 | 0.13 | 0.13 | 99 | 1010.2 |
| 20260904094638 | 23 | 101 | 4.8 | 8.0 | 0.00 | 0.13 | 0.13 | 99 | 1010.5 |
| 20260904094132 | 23 | 97 | 3.2 | 3.2 | 0.00 | 0.13 | 0.13 | 99 | 1010.5 |
| 20260904093630 | 23 | 90 | 1.6 | 3.2 | 0.00 | 0.13 | 0.13 | 99 | 1010.3 |
| 20260904093129 | 23 | 93 | 1.6 | 3.2 | 0.00 | 0.13 | 0.13 | 99 | 1010.1 |
| 20260904092625 | 23 | 94 | 1.6 | 1.6 | 0.00 | 0.13 | 0.13 | 99 | 1010.3 |
| 20260904092121 | 23 | 94 | 1.6 | 8.0 | 0.00 | 0.13 | 0.13 | 99 | 1010.4 |
| 20260904091617 | 23 | 75 | 4.8 | 4.8 | 0.00 | 0.13 | 0.13 | 99 | 1010.2 |
| 20260904091117 | 23 | 95 | 0.0 | 3.2 | 0.00 | 0.13 | 0.13 | 99 | 1010.4 |